Terminal Aerodrome Forecast
Issued by NWS

Home | Current Version | Previous Version | Text Only | Print | Product List | Glossary On
Versions: 1 2 3 4 5 6 7 8 9 10 11 12 13 14 15
000
FTUS42 TJSJ 291100
TAFNCM
TAF
TNCM 291140Z 2912/3012 VRB04KT P6SM VCSH FEW018 SCT040
     FM291300 10014KT P6SM VCSH SCT020
     FM292000 10010KT P6SM VCSH SCT018=

USA.gov is the U.S. government's official web portal to all federal, state and local government web resources and services.